sensor_id;sensor_type;location;lat;lon;timestamp;temperature;humidity
51655;DHT22;37732;53.106;7.030;2024-02-15T00:00:28;11.20;99.90
51655;DHT22;37732;53.106;7.030;2024-02-15T00:02:54;11.20;99.90
51655;DHT22;37732;53.106;7.030;2024-02-15T00:05:20;11.30;99.90
51655;DHT22;37732;53.106;7.030;2024-02-15T00:07:46;11.20;99.90
51655;DHT22;37732;53.106;7.030;2024-02-15T00:10:15;11.20;99.90
51655;DHT22;37732;53.106;7.030;2024-02-15T00:12:40;11.20;99.90
51655;DHT22;37732;53.106;7.030;2024-02-15T00:15:06;11.20;99.90
51655;DHT22;37732;53.106;7.030;2024-02-15T00:17:33;11.30;99.90
51655;DHT22;37732;53.106;7.030;2024-02-15T00:20:00;11.20;99.90
51655;DHT22;37732;53.106;7.030;2024-02-15T00:22:26;11.30;99.90
51655;DHT22;37732;53.106;7.030;2024-02-15T00:24:52;11.20;99.90
51655;DHT22;37732;53.106;7.030;2024-02-15T00:27:18;11.20;99.90
51655;DHT22;37732;53.106;7.030;2024-02-15T00:29:45;11.30;99.90
51655;DHT22;37732;53.106;7.030;2024-02-15T00:32:11;11.30;99.90
51655;DHT22;37732;53.106;7.030;2024-02-15T00:34:37;11.30;99.90
51655;DHT22;37732;53.106;7.030;2024-02-15T00:37:04;11.30;99.90
51655;DHT22;37732;53.106;7.030;2024-02-15T00:39:31;11.20;99.90
51655;DHT22;37732;53.106;7.030;2024-02-15T00:41:58;11.20;99.90
51655;DHT22;37732;53.106;7.030;2024-02-15T00:44:26;11.20;99.90
51655;DHT22;37732;53.106;7.030;2024-02-15T00:46:52;11.20;99.90
51655;DHT22;37732;53.106;7.030;2024-02-15T00:49:17;11.30;99.90
51655;DHT22;37732;53.106;7.030;2024-02-15T00:51:46;11.30;99.90
51655;DHT22;37732;53.106;7.030;2024-02-15T00:54:12;11.20;99.90
51655;DHT22;37732;53.106;7.030;2024-02-15T00:56:37;11.20;99.90
51655;DHT22;37732;53.106;7.030;2024-02-15T00:59:03;11.30;99.90
51655;DHT22;37732;53.106;7.030;2024-02-15T01:01:30;11.20;99.90
51655;DHT22;37732;53.106;7.030;2024-02-15T01:03:56;11.20;99.90
51655;DHT22;37732;53.106;7.030;2024-02-15T01:06:22;11.20;99.90
51655;DHT22;37732;53.106;7.030;2024-02-15T01:08:48;11.20;99.90
51655;DHT22;37732;53.106;7.030;2024-02-15T01:11:14;11.20;99.90
51655;DHT22;37732;53.106;7.030;2024-02-15T01:13:40;11.20;99.90
51655;DHT22;37732;53.106;7.030;2024-02-15T01:16:06;11.20;99.90
51655;DHT22;37732;53.106;7.030;2024-02-15T01:18:32;11.20;99.90
51655;DHT22;37732;53.106;7.030;2024-02-15T01:20:58;11.20;99.90
51655;DHT22;37732;53.106;7.030;2024-02-15T01:23:24;11.20;99.90
51655;DHT22;37732;53.106;7.030;2024-02-15T01:25:52;11.20;99.90
51655;DHT22;37732;53.106;7.030;2024-02-15T01:28:18;11.20;99.90
51655;DHT22;37732;53.106;7.030;2024-02-15T01:30:43;11.20;99.90
51655;DHT22;37732;53.106;7.030;2024-02-15T01:33:09;11.20;99.90
51655;DHT22;37732;53.106;7.030;2024-02-15T01:35:37;11.20;99.90
51655;DHT22;37732;53.106;7.030;2024-02-15T01:38:03;11.20;99.90
51655;DHT22;37732;53.106;7.030;2024-02-15T01:40:28;11.20;99.90
51655;DHT22;37732;53.106;7.030;2024-02-15T01:42:54;11.10;99.90
51655;DHT22;37732;53.106;7.030;2024-02-15T01:45:20;11.20;99.90
51655;DHT22;37732;53.106;7.030;2024-02-15T01:47:48;11.10;99.90
51655;DHT22;37732;53.106;7.030;2024-02-15T01:50:14;11.20;99.90
51655;DHT22;37732;53.106;7.030;2024-02-15T01:52:42;11.20;99.90
51655;DHT22;37732;53.106;7.030;2024-02-15T01:55:09;11.20;99.90
51655;DHT22;37732;53.106;7.030;2024-02-15T01:57:39;11.20;99.90
51655;DHT22;37732;53.106;7.030;2024-02-15T02:00:06;11.20;99.90
51655;DHT22;37732;53.106;7.030;2024-02-15T02:02:34;11.10;99.90
51655;DHT22;37732;53.106;7.030;2024-02-15T02:05:01;11.10;99.90
51655;DHT22;37732;53.106;7.030;2024-02-15T02:07:28;11.10;99.90
51655;DHT22;37732;53.106;7.030;2024-02-15T02:09:54;11.20;99.90
51655;DHT22;37732;53.106;7.030;2024-02-15T02:12:20;11.20;99.90
51655;DHT22;37732;53.106;7.030;2024-02-15T02:14:45;11.20;99.90
51655;DHT22;37732;53.106;7.030;2024-02-15T02:17:13;11.20;99.90
51655;DHT22;37732;53.106;7.030;2024-02-15T02:19:39;11.20;99.90
51655;DHT22;37732;53.106;7.030;2024-02-15T02:22:05;11.20;99.90
51655;DHT22;37732;53.106;7.030;2024-02-15T02:24:33;11.20;99.90
51655;DHT22;37732;53.106;7.030;2024-02-15T02:27:07;11.20;99.90
51655;DHT22;37732;53.106;7.030;2024-02-15T02:29:33;11.20;99.90
51655;DHT22;37732;53.106;7.030;2024-02-15T02:31:59;11.20;99.90
51655;DHT22;37732;53.106;7.030;2024-02-15T02:34:25;11.20;99.90
51655;DHT22;37732;53.106;7.030;2024-02-15T02:36:51;11.20;99.90
51655;DHT22;37732;53.106;7.030;2024-02-15T02:39:17;11.20;99.90
51655;DHT22;37732;53.106;7.030;2024-02-15T02:41:43;11.20;99.90
51655;DHT22;37732;53.106;7.030;2024-02-15T02:44:08;11.20;99.90
51655;DHT22;37732;53.106;7.030;2024-02-15T02:46:34;11.20;99.90
51655;DHT22;37732;53.106;7.030;2024-02-15T02:49:00;11.20;99.90
51655;DHT22;37732;53.106;7.030;2024-02-15T02:51:26;11.20;99.90
51655;DHT22;37732;53.106;7.030;2024-02-15T02:53:52;11.20;99.90
51655;DHT22;37732;53.106;7.030;2024-02-15T02:56:18;11.20;99.90
51655;DHT22;37732;53.106;7.030;2024-02-15T02:58:44;11.20;99.90
51655;DHT22;37732;53.106;7.030;2024-02-15T03:01:10;11.20;99.90
51655;DHT22;37732;53.106;7.030;2024-02-15T03:03:37;11.20;99.90
51655;DHT22;37732;53.106;7.030;2024-02-15T03:06:04;11.20;99.90
51655;DHT22;37732;53.106;7.030;2024-02-15T03:08:30;11.20;99.90
51655;DHT22;37732;53.106;7.030;2024-02-15T03:10:55;11.20;99.90
51655;DHT22;37732;53.106;7.030;2024-02-15T03:13:21;11.20;99.90
51655;DHT22;37732;53.106;7.030;2024-02-15T03:15:47;11.20;99.90
51655;DHT22;37732;53.106;7.030;2024-02-15T03:18:15;11.20;99.90
51655;DHT22;37732;53.106;7.030;2024-02-15T03:20:41;11.20;99.90
51655;DHT22;37732;53.106;7.030;2024-02-15T03:23:07;11.20;99.90
51655;DHT22;37732;53.106;7.030;2024-02-15T03:25:33;11.20;99.90
51655;DHT22;37732;53.106;7.030;2024-02-15T03:28:00;11.20;99.90
51655;DHT22;37732;53.106;7.030;2024-02-15T03:30:30;11.20;99.90
51655;DHT22;37732;53.106;7.030;2024-02-15T03:32:57;11.20;99.90
51655;DHT22;37732;53.106;7.030;2024-02-15T03:35:24;11.20;99.90
51655;DHT22;37732;53.106;7.030;2024-02-15T03:37:50;11.20;99.90
51655;DHT22;37732;53.106;7.030;2024-02-15T03:40:17;11.20;99.90
51655;DHT22;37732;53.106;7.030;2024-02-15T03:42:43;11.20;99.90
51655;DHT22;37732;53.106;7.030;2024-02-15T03:45:09;11.20;99.90
51655;DHT22;37732;53.106;7.030;2024-02-15T03:47:36;11.20;99.90
51655;DHT22;37732;53.106;7.030;2024-02-15T03:50:06;11.20;99.90
51655;DHT22;37732;53.106;7.030;2024-02-15T03:52:32;11.20;99.90
51655;DHT22;37732;53.106;7.030;2024-02-15T03:54:58;11.20;99.90
51655;DHT22;37732;53.106;7.030;2024-02-15T03:57:25;11.20;99.90
51655;DHT22;37732;53.106;7.030;2024-02-15T03:59:51;11.20;99.90
51655;DHT22;37732;53.106;7.030;2024-02-15T04:02:20;11.30;99.90
51655;DHT22;37732;53.106;7.030;2024-02-15T04:04:46;11.20;99.90
51655;DHT22;37732;53.106;7.030;2024-02-15T04:07:15;11.30;99.90
51655;DHT22;37732;53.106;7.030;2024-02-15T04:09:42;11.30;99.90
51655;DHT22;37732;53.106;7.030;2024-02-15T04:12:08;11.30;99.90
51655;DHT22;37732;53.106;7.030;2024-02-15T04:14:34;11.30;99.90
51655;DHT22;37732;53.106;7.030;2024-02-15T04:17:00;11.30;99.90
51655;DHT22;37732;53.106;7.030;2024-02-15T04:19:27;11.20;99.90
51655;DHT22;37732;53.106;7.030;2024-02-15T04:21:53;11.30;99.90
51655;DHT22;37732;53.106;7.030;2024-02-15T04:24:21;11.30;99.90
51655;DHT22;37732;53.106;7.030;2024-02-15T04:26:47;11.20;99.90
51655;DHT22;37732;53.106;7.030;2024-02-15T04:29:16;11.30;99.90
51655;DHT22;37732;53.106;7.030;2024-02-15T04:31:43;11.30;99.90
51655;DHT22;37732;53.106;7.030;2024-02-15T04:34:09;11.20;99.90
51655;DHT22;37732;53.106;7.030;2024-02-15T04:36:35;11.20;99.90
51655;DHT22;37732;53.106;7.030;2024-02-15T04:39:02;11.30;99.90
51655;DHT22;37732;53.106;7.030;2024-02-15T04:41:28;11.30;99.90
51655;DHT22;37732;53.106;7.030;2024-02-15T04:43:54;11.20;99.90
51655;DHT22;37732;53.106;7.030;2024-02-15T04:46:20;11.30;99.90
51655;DHT22;37732;53.106;7.030;2024-02-15T04:48:48;11.30;99.90
51655;DHT22;37732;53.106;7.030;2024-02-15T04:51:17;11.30;99.90
51655;DHT22;37732;53.106;7.030;2024-02-15T04:53:46;11.30;99.90
51655;DHT22;37732;53.106;7.030;2024-02-15T04:56:13;11.30;99.90
51655;DHT22;37732;53.106;7.030;2024-02-15T04:58:42;11.30;99.90
51655;DHT22;37732;53.106;7.030;2024-02-15T05:01:14;11.30;99.90
51655;DHT22;37732;53.106;7.030;2024-02-15T05:03:44;11.30;99.90
51655;DHT22;37732;53.106;7.030;2024-02-15T05:06:11;11.40;99.90
51655;DHT22;37732;53.106;7.030;2024-02-15T05:08:41;11.30;99.90
51655;DHT22;37732;53.106;7.030;2024-02-15T05:11:12;11.30;99.90
51655;DHT22;37732;53.106;7.030;2024-02-15T05:13:46;11.40;99.90
51655;DHT22;37732;53.106;7.030;2024-02-15T05:16:12;11.30;99.90
51655;DHT22;37732;53.106;7.030;2024-02-15T05:18:38;11.40;99.90
51655;DHT22;37732;53.106;7.030;2024-02-15T05:21:06;11.40;99.90
51655;DHT22;37732;53.106;7.030;2024-02-15T05:23:35;11.40;99.90
51655;DHT22;37732;53.106;7.030;2024-02-15T05:26:00;11.40;99.90
51655;DHT22;37732;53.106;7.030;2024-02-15T05:28:26;11.40;99.90
51655;DHT22;37732;53.106;7.030;2024-02-15T05:31:14;11.40;99.90
51655;DHT22;37732;53.106;7.030;2024-02-15T05:33:43;11.50;99.90
51655;DHT22;37732;53.106;7.030;2024-02-15T05:36:13;11.50;99.90
51655;DHT22;37732;53.106;7.030;2024-02-15T05:38:40;11.50;99.90
51655;DHT22;37732;53.106;7.030;2024-02-15T05:41:06;11.50;99.90
51655;DHT22;37732;53.106;7.030;2024-02-15T05:43:36;11.50;99.90
51655;DHT22;37732;53.106;7.030;2024-02-15T05:46:04;11.50;99.90
51655;DHT22;37732;53.106;7.030;2024-02-15T05:48:32;11.50;99.90
51655;DHT22;37732;53.106;7.030;2024-02-15T05:51:01;11.50;99.90
51655;DHT22;37732;53.106;7.030;2024-02-15T05:53:27;11.50;99.90
51655;DHT22;37732;53.106;7.030;2024-02-15T05:55:55;11.50;99.90
51655;DHT22;37732;53.106;7.030;2024-02-15T05:58:20;11.50;99.90
51655;DHT22;37732;53.106;7.030;2024-02-15T06:00:46;11.50;99.90
51655;DHT22;37732;53.106;7.030;2024-02-15T06:03:16;11.50;99.90
51655;DHT22;37732;53.106;7.030;2024-02-15T06:05:42;11.50;99.90
51655;DHT22;37732;53.106;7.030;2024-02-15T06:08:09;11.40;99.90
51655;DHT22;37732;53.106;7.030;2024-02-15T06:10:38;11.50;99.90
51655;DHT22;37732;53.106;7.030;2024-02-15T06:13:04;11.50;99.90
51655;DHT22;37732;53.106;7.030;2024-02-15T06:15:29;11.50;99.90
51655;DHT22;37732;53.106;7.030;2024-02-15T06:17:55;11.50;99.90
51655;DHT22;37732;53.106;7.030;2024-02-15T06:20:22;11.50;99.90
51655;DHT22;37732;53.106;7.030;2024-02-15T06:22:49;11.50;99.90
51655;DHT22;37732;53.106;7.030;2024-02-15T06:25:14;11.50;99.90
51655;DHT22;37732;53.106;7.030;2024-02-15T06:27:45;11.50;99.90
51655;DHT22;37732;53.106;7.030;2024-02-15T06:30:12;11.50;99.90
51655;DHT22;37732;53.106;7.030;2024-02-15T06:32:57;11.50;99.90
51655;DHT22;37732;53.106;7.030;2024-02-15T06:35:42;11.60;99.90
51655;DHT22;37732;53.106;7.030;2024-02-15T06:38:26;11.60;99.90
51655;DHT22;37732;53.106;7.030;2024-02-15T06:41:11;11.60;99.90
51655;DHT22;37732;53.106;7.030;2024-02-15T06:43:37;11.70;99.90
51655;DHT22;37732;53.106;7.030;2024-02-15T06:46:05;11.60;99.90
51655;DHT22;37732;53.106;7.030;2024-02-15T06:48:31;11.70;99.90
51655;DHT22;37732;53.106;7.030;2024-02-15T06:50:57;11.70;99.90
51655;DHT22;37732;53.106;7.030;2024-02-15T06:53:23;11.70;99.90
51655;DHT22;37732;53.106;7.030;2024-02-15T06:55:50;11.70;99.90
51655;DHT22;37732;53.106;7.030;2024-02-15T06:58:18;11.70;99.90
51655;DHT22;37732;53.106;7.030;2024-02-15T07:00:45;11.70;99.90
51655;DHT22;37732;53.106;7.030;2024-02-15T07:03:13;11.70;99.90
51655;DHT22;37732;53.106;7.030;2024-02-15T07:05:39;11.60;99.90
51655;DHT22;37732;53.106;7.030;2024-02-15T07:08:07;11.70;99.90
51655;DHT22;37732;53.106;7.030;2024-02-15T07:10:37;11.70;99.90
51655;DHT22;37732;53.106;7.030;2024-02-15T07:13:04;11.70;99.90
51655;DHT22;37732;53.106;7.030;2024-02-15T07:15:29;11.70;99.90
51655;DHT22;37732;53.106;7.030;2024-02-15T07:17:58;11.50;99.90
51655;DHT22;37732;53.106;7.030;2024-02-15T07:20:24;11.70;99.90
51655;DHT22;37732;53.106;7.030;2024-02-15T07:22:51;11.70;99.90
51655;DHT22;37732;53.106;7.030;2024-02-15T07:25:17;11.70;99.90
51655;DHT22;37732;53.106;7.030;2024-02-15T07:27:43;11.70;99.90
51655;DHT22;37732;53.106;7.030;2024-02-15T07:30:09;11.70;99.90
51655;DHT22;37732;53.106;7.030;2024-02-15T07:32:35;11.70;99.90
51655;DHT22;37732;53.106;7.030;2024-02-15T07:35:01;11.70;99.90
51655;DHT22;37732;53.106;7.030;2024-02-15T07:37:27;11.70;99.90
51655;DHT22;37732;53.106;7.030;2024-02-15T07:39:54;11.70;99.90
51655;DHT22;37732;53.106;7.030;2024-02-15T07:42:20;11.80;99.90
51655;DHT22;37732;53.106;7.030;2024-02-15T07:44:46;11.80;99.90
51655;DHT22;37732;53.106;7.030;2024-02-15T07:47:11;11.70;99.90
51655;DHT22;37732;53.106;7.030;2024-02-15T07:49:37;11.80;99.90
51655;DHT22;37732;53.106;7.030;2024-02-15T07:52:03;11.70;99.90
51655;DHT22;37732;53.106;7.030;2024-02-15T07:54:30;11.70;99.90
51655;DHT22;37732;53.106;7.030;2024-02-15T07:56:58;11.70;99.90
51655;DHT22;37732;53.106;7.030;2024-02-15T07:59:24;11.80;99.90
51655;DHT22;37732;53.106;7.030;2024-02-15T08:01:50;11.80;99.90
51655;DHT22;37732;53.106;7.030;2024-02-15T08:04:16;11.80;99.90
51655;DHT22;37732;53.106;7.030;2024-02-15T08:06:47;11.70;99.90
51655;DHT22;37732;53.106;7.030;2024-02-15T08:09:15;11.80;99.90
51655;DHT22;37732;53.106;7.030;2024-02-15T08:11:43;11.70;99.90
51655;DHT22;37732;53.106;7.030;2024-02-15T08:14:09;11.70;99.90
51655;DHT22;37732;53.106;7.030;2024-02-15T08:16:37;11.70;99.90
51655;DHT22;37732;53.106;7.030;2024-02-15T08:19:03;11.80;99.90
51655;DHT22;37732;53.106;7.030;2024-02-15T08:21:31;11.70;99.90
51655;DHT22;37732;53.106;7.030;2024-02-15T08:24:05;11.70;99.90
51655;DHT22;37732;53.106;7.030;2024-02-15T08:26:38;11.70;99.90
51655;DHT22;37732;53.106;7.030;2024-02-15T08:29:04;11.70;99.90
51655;DHT22;37732;53.106;7.030;2024-02-15T08:31:31;11.70;99.90
51655;DHT22;37732;53.106;7.030;2024-02-15T08:33:57;11.70;99.90
51655;DHT22;37732;53.106;7.030;2024-02-15T08:36:23;11.70;99.90
51655;DHT22;37732;53.106;7.030;2024-02-15T08:38:50;11.70;99.90
51655;DHT22;37732;53.106;7.030;2024-02-15T08:41:16;11.70;99.90
51655;DHT22;37732;53.106;7.030;2024-02-15T08:43:47;11.80;99.90
51655;DHT22;37732;53.106;7.030;2024-02-15T08:46:15;11.70;99.90
51655;DHT22;37732;53.106;7.030;2024-02-15T08:48:41;11.80;99.90
51655;DHT22;37732;53.106;7.030;2024-02-15T08:51:08;11.70;99.90
51655;DHT22;37732;53.106;7.030;2024-02-15T08:53:35;11.70;99.90
51655;DHT22;37732;53.106;7.030;2024-02-15T08:56:03;11.70;99.90
51655;DHT22;37732;53.106;7.030;2024-02-15T08:58:29;11.70;99.90
51655;DHT22;37732;53.106;7.030;2024-02-15T09:00:56;11.80;99.90
51655;DHT22;37732;53.106;7.030;2024-02-15T09:03:22;11.70;99.90
51655;DHT22;37732;53.106;7.030;2024-02-15T09:05:48;11.80;99.90
51655;DHT22;37732;53.106;7.030;2024-02-15T09:08:14;11.80;99.90
51655;DHT22;37732;53.106;7.030;2024-02-15T09:10:41;11.70;99.90
51655;DHT22;37732;53.106;7.030;2024-02-15T09:13:08;11.80;99.90
51655;DHT22;37732;53.106;7.030;2024-02-15T09:15:34;11.80;99.90
51655;DHT22;37732;53.106;7.030;2024-02-15T09:18:01;11.80;99.90
51655;DHT22;37732;53.106;7.030;2024-02-15T09:20:27;11.80;99.90
51655;DHT22;37732;53.106;7.030;2024-02-15T09:22:54;11.80;99.90
51655;DHT22;37732;53.106;7.030;2024-02-15T09:25:21;11.80;99.90
51655;DHT22;37732;53.106;7.030;2024-02-15T09:27:51;11.80;99.90
51655;DHT22;37732;53.106;7.030;2024-02-15T09:30:17;11.80;99.90
51655;DHT22;37732;53.106;7.030;2024-02-15T09:32:44;11.90;99.90
51655;DHT22;37732;53.106;7.030;2024-02-15T09:35:11;11.90;99.90
51655;DHT22;37732;53.106;7.030;2024-02-15T09:37:45;11.90;99.90
51655;DHT22;37732;53.106;7.030;2024-02-15T09:40:15;11.90;99.90
51655;DHT22;37732;53.106;7.030;2024-02-15T09:42:42;11.90;99.90
51655;DHT22;37732;53.106;7.030;2024-02-15T09:45:11;11.90;99.90
51655;DHT22;37732;53.106;7.030;2024-02-15T09:47:44;11.90;99.90
51655;DHT22;37732;53.106;7.030;2024-02-15T09:50:11;12.40;99.90
51655;DHT22;37732;53.106;7.030;2024-02-15T09:52:39;11.90;99.90
51655;DHT22;37732;53.106;7.030;2024-02-15T09:55:07;11.90;99.90
51655;DHT22;37732;53.106;7.030;2024-02-15T09:57:43;11.90;99.90
51655;DHT22;37732;53.106;7.030;2024-02-15T10:00:10;11.90;99.90
51655;DHT22;37732;53.106;7.030;2024-02-15T10:02:48;11.90;99.90
51655;DHT22;37732;53.106;7.030;2024-02-15T10:05:16;12.00;99.90
51655;DHT22;37732;53.106;7.030;2024-02-15T10:07:43;12.00;99.90
51655;DHT22;37732;53.106;7.030;2024-02-15T10:12:52;12.10;99.90
51655;DHT22;37732;53.106;7.030;2024-02-15T10:15:38;12.10;99.90
51655;DHT22;37732;53.106;7.030;2024-02-15T10:18:09;12.10;99.90
51655;DHT22;37732;53.106;7.030;2024-02-15T10:20:42;12.10;99.90
51655;DHT22;37732;53.106;7.030;2024-02-15T10:23:13;12.20;99.90
51655;DHT22;37732;53.106;7.030;2024-02-15T10:25:40;12.20;99.90
51655;DHT22;37732;53.106;7.030;2024-02-15T10:28:10;12.20;99.90
51655;DHT22;37732;53.106;7.030;2024-02-15T10:30:38;12.20;99.90
51655;DHT22;37732;53.106;7.030;2024-02-15T10:33:05;12.20;99.90
51655;DHT22;37732;53.106;7.030;2024-02-15T10:35:31;12.30;99.90
51655;DHT22;37732;53.106;7.030;2024-02-15T10:38:07;12.30;99.90
51655;DHT22;37732;53.106;7.030;2024-02-15T10:40:33;12.30;99.90
51655;DHT22;37732;53.106;7.030;2024-02-15T10:42:59;12.30;99.90
51655;DHT22;37732;53.106;7.030;2024-02-15T10:45:26;12.40;99.90
51655;DHT22;37732;53.106;7.030;2024-02-15T10:47:51;12.40;99.90
51655;DHT22;37732;53.106;7.030;2024-02-15T10:50:18;12.40;99.90
51655;DHT22;37732;53.106;7.030;2024-02-15T10:52:55;12.40;99.90
51655;DHT22;37732;53.106;7.030;2024-02-15T10:55:45;12.40;99.90
51655;DHT22;37732;53.106;7.030;2024-02-15T10:58:18;12.50;99.90
51655;DHT22;37732;53.106;7.030;2024-02-15T11:00:46;12.50;99.90
51655;DHT22;37732;53.106;7.030;2024-02-15T11:03:21;12.50;99.90
51655;DHT22;37732;53.106;7.030;2024-02-15T11:05:50;12.50;99.90
51655;DHT22;37732;53.106;7.030;2024-02-15T11:08:16;12.60;99.90
51655;DHT22;37732;53.106;7.030;2024-02-15T11:10:43;12.60;99.90
51655;DHT22;37732;53.106;7.030;2024-02-15T11:13:09;12.60;99.90
51655;DHT22;37732;53.106;7.030;2024-02-15T11:18:04;12.70;99.90
51655;DHT22;37732;53.106;7.030;2024-02-15T11:23:00;12.70;99.90
51655;DHT22;37732;53.106;7.030;2024-02-15T11:25:39;12.60;99.90
51655;DHT22;37732;53.106;7.030;2024-02-15T11:30:55;12.60;99.90
51655;DHT22;37732;53.106;7.030;2024-02-15T11:33:34;12.60;99.90
51655;DHT22;37732;53.106;7.030;2024-02-15T11:38:34;12.70;99.90
51655;DHT22;37732;53.106;7.030;2024-02-15T11:41:01;12.70;99.90
51655;DHT22;37732;53.106;7.030;2024-02-15T11:43:54;12.80;99.90
51655;DHT22;37732;53.106;7.030;2024-02-15T11:46:25;12.70;99.90
51655;DHT22;37732;53.106;7.030;2024-02-15T11:48:52;12.80;99.90
51655;DHT22;37732;53.106;7.030;2024-02-15T11:51:34;12.80;99.90
51655;DHT22;37732;53.106;7.030;2024-02-15T11:54:11;12.80;99.90
51655;DHT22;37732;53.106;7.030;2024-02-15T11:59:09;12.80;99.90
51655;DHT22;37732;53.106;7.030;2024-02-15T12:01:44;12.90;99.90
51655;DHT22;37732;53.106;7.030;2024-02-15T12:04:30;12.80;99.90
51655;DHT22;37732;53.106;7.030;2024-02-15T12:07:15;12.90;99.90
51655;DHT22;37732;53.106;7.030;2024-02-15T12:09:59;12.80;99.90
51655;DHT22;37732;53.106;7.030;2024-02-15T12:12:54;12.80;99.90
51655;DHT22;37732;53.106;7.030;2024-02-15T12:15:38;12.90;99.90
51655;DHT22;37732;53.106;7.030;2024-02-15T12:18:22;12.90;99.90
51655;DHT22;37732;53.106;7.030;2024-02-15T12:21:07;12.90;99.90
51655;DHT22;37732;53.106;7.030;2024-02-15T12:23:37;12.90;99.90
51655;DHT22;37732;53.106;7.030;2024-02-15T12:26:03;12.90;99.90
51655;DHT22;37732;53.106;7.030;2024-02-15T12:28:30;12.90;99.90
51655;DHT22;37732;53.106;7.030;2024-02-15T12:30:56;12.90;99.90
51655;DHT22;37732;53.106;7.030;2024-02-15T12:33:25;13.00;99.90
51655;DHT22;37732;53.106;7.030;2024-02-15T12:36:04;12.90;99.90
51655;DHT22;37732;53.106;7.030;2024-02-15T12:38:31;12.90;99.90
51655;DHT22;37732;53.106;7.030;2024-02-15T12:40:57;12.90;99.90
51655;DHT22;37732;53.106;7.030;2024-02-15T12:43:22;12.90;99.90
51655;DHT22;37732;53.106;7.030;2024-02-15T12:45:48;12.80;99.90
51655;DHT22;37732;53.106;7.030;2024-02-15T12:48:14;12.90;99.90
51655;DHT22;37732;53.106;7.030;2024-02-15T12:50:44;12.80;99.90
51655;DHT22;37732;53.106;7.030;2024-02-15T12:53:10;12.80;99.90
51655;DHT22;37732;53.106;7.030;2024-02-15T12:55:37;12.80;99.90
51655;DHT22;37732;53.106;7.030;2024-02-15T12:58:07;12.80;99.90
51655;DHT22;37732;53.106;7.030;2024-02-15T13:00:39;12.80;99.90
51655;DHT22;37732;53.106;7.030;2024-02-15T13:03:06;12.80;99.90
51655;DHT22;37732;53.106;7.030;2024-02-15T13:05:36;12.80;99.90
51655;DHT22;37732;53.106;7.030;2024-02-15T13:08:03;12.80;99.90
51655;DHT22;37732;53.106;7.030;2024-02-15T13:10:35;12.80;99.90
51655;DHT22;37732;53.106;7.030;2024-02-15T13:13:01;12.80;99.90
51655;DHT22;37732;53.106;7.030;2024-02-15T13:15:27;12.80;99.90
51655;DHT22;37732;53.106;7.030;2024-02-15T13:17:58;12.70;99.90
51655;DHT22;37732;53.106;7.030;2024-02-15T13:20:24;12.70;99.90
51655;DHT22;37732;53.106;7.030;2024-02-15T13:23:02;12.70;99.90
51655;DHT22;37732;53.106;7.030;2024-02-15T13:25:36;12.70;99.90
51655;DHT22;37732;53.106;7.030;2024-02-15T13:28:04;12.70;99.90
51655;DHT22;37732;53.106;7.030;2024-02-15T13:30:30;12.70;99.90
51655;DHT22;37732;53.106;7.030;2024-02-15T13:32:56;12.70;99.90
51655;DHT22;37732;53.106;7.030;2024-02-15T13:35:22;12.70;99.90
51655;DHT22;37732;53.106;7.030;2024-02-15T13:37:54;12.60;99.90
51655;DHT22;37732;53.106;7.030;2024-02-15T13:40:21;12.60;99.90
51655;DHT22;37732;53.106;7.030;2024-02-15T13:42:51;12.60;99.90
51655;DHT22;37732;53.106;7.030;2024-02-15T13:45:30;12.60;99.90
51655;DHT22;37732;53.106;7.030;2024-02-15T13:47:59;12.60;99.90
51655;DHT22;37732;53.106;7.030;2024-02-15T13:50:31;12.60;99.90
51655;DHT22;37732;53.106;7.030;2024-02-15T13:52:57;12.60;99.90
51655;DHT22;37732;53.106;7.030;2024-02-15T13:55:26;12.60;99.90
51655;DHT22;37732;53.106;7.030;2024-02-15T13:57:52;12.60;99.90
51655;DHT22;37732;53.106;7.030;2024-02-15T14:00:19;12.60;99.90
51655;DHT22;37732;53.106;7.030;2024-02-15T14:02:52;12.60;99.90
51655;DHT22;37732;53.106;7.030;2024-02-15T14:05:22;12.50;99.90
51655;DHT22;37732;53.106;7.030;2024-02-15T14:07:52;12.60;99.90
51655;DHT22;37732;53.106;7.030;2024-02-15T14:10:19;12.50;99.90
51655;DHT22;37732;53.106;7.030;2024-02-15T14:12:47;12.60;99.90
51655;DHT22;37732;53.106;7.030;2024-02-15T14:15:17;12.60;99.90
51655;DHT22;37732;53.106;7.030;2024-02-15T14:17:44;12.50;99.90
51655;DHT22;37732;53.106;7.030;2024-02-15T14:20:10;12.60;99.90
51655;DHT22;37732;53.106;7.030;2024-02-15T14:22:48;12.50;99.90
51655;DHT22;37732;53.106;7.030;2024-02-15T14:25:15;12.50;99.90
51655;DHT22;37732;53.106;7.030;2024-02-15T14:27:41;12.50;99.90
51655;DHT22;37732;53.106;7.030;2024-02-15T14:30:10;12.50;99.90
51655;DHT22;37732;53.106;7.030;2024-02-15T14:32:54;12.50;99.90
51655;DHT22;37732;53.106;7.030;2024-02-15T14:35:33;12.50;99.90
51655;DHT22;37732;53.106;7.030;2024-02-15T14:40:39;12.50;99.90
51655;DHT22;37732;53.106;7.030;2024-02-15T14:43:06;12.50;99.90
51655;DHT22;37732;53.106;7.030;2024-02-15T14:45:39;12.50;99.90
51655;DHT22;37732;53.106;7.030;2024-02-15T14:48:09;12.50;99.90
51655;DHT22;37732;53.106;7.030;2024-02-15T14:50:41;12.50;99.90
51655;DHT22;37732;53.106;7.030;2024-02-15T14:53:07;12.50;99.90
51655;DHT22;37732;53.106;7.030;2024-02-15T14:55:37;12.50;99.90
51655;DHT22;37732;53.106;7.030;2024-02-15T14:58:08;12.50;99.90
51655;DHT22;37732;53.106;7.030;2024-02-15T15:00:34;12.50;99.90
51655;DHT22;37732;53.106;7.030;2024-02-15T15:03:00;12.60;99.90
51655;DHT22;37732;53.106;7.030;2024-02-15T15:05:26;12.50;99.90
51655;DHT22;37732;53.106;7.030;2024-02-15T15:08:10;12.50;99.90
51655;DHT22;37732;53.106;7.030;2024-02-15T15:10:55;12.50;99.90
51655;DHT22;37732;53.106;7.030;2024-02-15T15:13:39;12.50;99.90
51655;DHT22;37732;53.106;7.030;2024-02-15T15:16:06;12.50;99.90
51655;DHT22;37732;53.106;7.030;2024-02-15T15:18:33;12.50;99.90
51655;DHT22;37732;53.106;7.030;2024-02-15T15:21:01;12.50;99.90
51655;DHT22;37732;53.106;7.030;2024-02-15T15:23:27;12.50;99.90
51655;DHT22;37732;53.106;7.030;2024-02-15T15:26:00;12.50;99.90
51655;DHT22;37732;53.106;7.030;2024-02-15T15:28:27;12.50;99.90
51655;DHT22;37732;53.106;7.030;2024-02-15T15:30:53;12.50;99.90
51655;DHT22;37732;53.106;7.030;2024-02-15T15:33:19;12.60;99.90
51655;DHT22;37732;53.106;7.030;2024-02-15T15:35:45;12.50;99.90
51655;DHT22;37732;53.106;7.030;2024-02-15T15:38:11;12.50;99.90
51655;DHT22;37732;53.106;7.030;2024-02-15T15:40:37;12.60;99.90
51655;DHT22;37732;53.106;7.030;2024-02-15T15:43:04;12.50;99.90
51655;DHT22;37732;53.106;7.030;2024-02-15T15:45:34;12.60;99.90
51655;DHT22;37732;53.106;7.030;2024-02-15T15:48:00;12.60;99.90
51655;DHT22;37732;53.106;7.030;2024-02-15T15:50:27;12.60;99.90
51655;DHT22;37732;53.106;7.030;2024-02-15T15:52:54;12.20;99.90
51655;DHT22;37732;53.106;7.030;2024-02-15T15:55:24;12.60;99.90